Time;durP1;ratioP1;P1;durP2;ratioP2;P2;SDS_P1;SDS_P2;PMS_P1;PMS_P2;Temp;Humidity;BMP_temperature;BMP_pressure;BME280_temperature;BME280_humidity;BME280_pressure;Samples;Min_cycle;Max_cycle;Signal;HPM_P1;HPM_P2
2021/12/06 00:01:53;;;;;;;;;;;;;;;11.76;100.00;101056.91;5073535;28;20019;-54
2021/12/06 00:04:20;;;;;;;;;;;;;;;11.76;100.00;101056.91;5074420;28;20407;-52
2021/12/06 00:06:48;;;;;;;;;;;;;;;11.94;100.00;101046.66;5074495;28;20376;-51
2021/12/06 00:09:18;;;;;;;;;;;;;;;11.76;100.00;101053.38;5074412;28;19920;-53
2021/12/06 00:11:44;;;;;;;;;;;;;;;11.73;100.00;101051.94;5073227;28;19924;-55
2021/12/06 00:14:09;;;;;;;;;;;;;;;11.75;100.00;101054.41;5074468;28;19916;-48
2021/12/06 00:16:35;;;;;;;;;;;;;;;11.72;100.00;101054.78;5074284;28;19928;-53
2021/12/06 00:19:01;;;;;;;;;;;;;;;11.76;100.00;101054.22;5074742;28;19927;-52
2021/12/06 00:21:27;;;;;;;;;;;;;;;11.85;100.00;101056.72;5074279;28;19920;-50
2021/12/06 00:23:52;;;;;;;;;;;;;;;11.80;100.00;101054.66;5074617;28;19923;-51
2021/12/06 00:26:17;;;;;;;;;;;;;;;11.65;100.00;101061.97;5074714;28;19928;-50
2021/12/06 00:28:45;;;;;;;;;;;;;;;11.70;100.00;101064.88;5072728;28;20284;-49
2021/12/06 00:31:11;;;;;;;;;;;;;;;11.71;100.00;101066.53;5072855;28;20271;-50
2021/12/06 00:33:37;;;;;;;;;;;;;;;11.66;100.00;101069.00;5073811;28;19924;-47
2021/12/06 00:36:06;;;;;;;;;;;;;;;11.68;100.00;101062.41;5072814;28;20011;-51
2021/12/06 00:38:32;;;;;;;;;;;;;;;11.62;100.00;101057.84;5073843;28;19927;-54
2021/12/06 00:40:58;;;;;;;;;;;;;;;11.68;100.00;101064.25;5072666;28;20292;-53
2021/12/06 00:43:23;;;;;;;;;;;;;;;11.71;100.00;101063.88;5073983;28;19920;-53
2021/12/06 00:45:49;;;;;;;;;;;;;;;11.73;100.00;101073.38;5074539;28;19921;-51
2021/12/06 00:48:14;;;;;;;;;;;;;;;11.74;100.00;101087.56;5073953;28;19975;-49
2021/12/06 00:50:41;;;;;;;;;;;;;;;11.71;100.00;101093.34;5073896;28;19924;-49
2021/12/06 00:53:07;;;;;;;;;;;;;;;11.76;100.00;101106.97;5073505;28;19932;-54
2021/12/06 00:55:32;;;;;;;;;;;;;;;11.89;100.00;101100.88;5072973;28;19916;-50
2021/12/06 00:57:58;;;;;;;;;;;;;;;11.83;100.00;101109.69;5072646;28;19928;-49
2021/12/06 01:00:25;;;;;;;;;;;;;;;11.73;100.00;101107.34;5073328;28;20272;-51
2021/12/06 01:02:52;;;;;;;;;;;;;;;11.71;100.00;101115.59;5072612;28;19920;-53
2021/12/06 01:05:22;;;;;;;;;;;;;;;11.76;100.00;101117.69;5072519;28;19921;-49
2021/12/06 01:07:48;;;;;;;;;;;;;;;11.82;100.00;101116.91;5072993;28;20380;-50
2021/12/06 01:10:14;;;;;;;;;;;;;;;11.82;100.00;101121.44;5072805;28;20061;-52
2021/12/06 01:12:40;;;;;;;;;;;;;;;11.86;100.00;101120.84;5072440;28;19925;-51
2021/12/06 01:15:06;;;;;;;;;;;;;;;11.76;100.00;101123.03;5073734;28;19917;-49
2021/12/06 01:17:31;;;;;;;;;;;;;;;11.74;100.00;101130.44;5072265;28;19920;-48
2021/12/06 01:19:57;;;;;;;;;;;;;;;11.68;100.00;101134.75;5039646;28;19931;-51
2021/12/06 01:22:28;;;;;;;;;;;;;;;11.57;100.00;101128.09;5072628;28;20292;-53
2021/12/06 01:25:01;;;;;;;;;;;;;;;11.64;100.00;101136.16;5073156;28;19925;-52
2021/12/06 01:40:04;;;;;;;;;;;;;;;11.64;100.00;101148.72;5072652;28;19920;-53
2021/12/06 01:42:30;;;;;;;;;;;;;;;11.65;100.00;101150.38;5075953;28;19927;-51
2021/12/06 01:44:57;;;;;;;;;;;;;;;11.49;100.00;101149.63;5076336;28;20015;-52
2021/12/06 01:47:29;;;;;;;;;;;;;;;11.59;100.00;101154.66;5076193;28;20027;-53
2021/12/06 01:49:59;;;;;;;;;;;;;;;11.68;100.00;101163.38;5077082;28;19921;-51
2021/12/06 01:52:34;;;;;;;;;;;;;;;11.66;100.00;101158.25;5076268;28;19921;-56
2021/12/06 01:55:00;;;;;;;;;;;;;;;11.67;100.00;101165.25;5059353;28;19921;-53
2021/12/06 01:57:27;;;;;;;;;;;;;;;11.68;100.00;101160.72;5075839;28;19917;-54
2021/12/06 01:59:53;;;;;;;;;;;;;;;11.62;100.00;101168.50;5075750;28;20273;-53
2021/12/06 02:02:20;;;;;;;;;;;;;;;11.50;100.00;101164.69;5076951;28;19925;-50
2021/12/06 02:04:45;;;;;;;;;;;;;;;11.57;100.00;101168.25;5076925;28;19916;-51
2021/12/06 02:07:15;;;;;;;;;;;;;;;11.46;100.00;101158.06;5059206;28;20003;-54
2021/12/06 02:09:43;;;;;;;;;;;;;;;11.56;100.00;101158.56;5075839;28;20381;-51
2021/12/06 02:12:10;;;;;;;;;;;;;;;11.65;100.00;101158.41;5076038;28;19920;-53
2021/12/06 02:17:13;;;;;;;;;;;;;;;11.65;100.00;101159.25;5059105;28;20295;-49
2021/12/06 02:19:43;;;;;;;;;;;;;;;11.61;100.00;101160.66;5075973;28;19974;-51
2021/12/06 02:22:11;;;;;;;;;;;;;;;11.59;100.00;101160.84;5075973;28;19928;-49
2021/12/06 02:24:38;;;;;;;;;;;;;;;11.67;100.00;101164.41;5076628;28;19920;-53
2021/12/06 02:27:06;;;;;;;;;;;;;;;11.64;100.00;101167.47;5058284;28;20058;-50
2021/12/06 02:29:32;;;;;;;;;;;;;;;11.52;100.00;101169.84;5075099;28;20313;-50
2021/12/06 02:31:58;;;;;;;;;;;;;;;11.65;100.00;101177.16;5076022;28;19921;-49
2021/12/06 02:34:24;;;;;;;;;;;;;;;11.63;100.00;101182.72;5075371;28;20364;-49
2021/12/06 02:36:50;;;;;;;;;;;;;;;11.70;100.00;101183.63;5074773;28;19938;-51
2021/12/06 02:39:22;;;;;;;;;;;;;;;11.71;100.00;101190.63;5075353;28;19989;-51
2021/12/06 02:41:51;;;;;;;;;;;;;;;11.59;100.00;101187.66;5075410;28;19943;-50
2021/12/06 02:44:17;;;;;;;;;;;;;;;11.58;100.00;101196.72;5075801;28;20353;-50
2021/12/06 02:46:43;;;;;;;;;;;;;;;11.68;100.00;101199.06;5074935;28;19924;-52
2021/12/06 02:49:09;;;;;;;;;;;;;;;11.66;100.00;101197.56;5075400;28;20027;-51
2021/12/06 02:51:34;;;;;;;;;;;;;;;11.67;100.00;101197.41;5075816;28;19982;-50
2021/12/06 02:54:00;;;;;;;;;;;;;;;11.70;100.00;101198.84;5074358;28;20226;-51
2021/12/06 02:56:31;;;;;;;;;;;;;;;11.73;100.00;101201.13;5075177;28;19920;-51
2021/12/06 02:59:00;;;;;;;;;;;;;;;11.73;100.00;101207.34;5075004;28;19971;-53
2021/12/06 03:01:33;;;;;;;;;;;;;;;11.72;100.00;101199.47;5075886;28;19931;-53
2021/12/06 03:04:00;;;;;;;;;;;;;;;11.76;100.00;101208.78;5074884;28;20364;-52
2021/12/06 03:06:26;;;;;;;;;;;;;;;11.75;100.00;101207.13;5074617;28;20012;-53
2021/12/06 03:08:57;;;;;;;;;;;;;;;11.70;100.00;101204.19;5075803;28;19959;-54
2021/12/06 03:11:25;;;;;;;;;;;;;;;11.77;100.00;101205.09;5075053;28;19921;-51
2021/12/06 03:13:51;;;;;;;;;;;;;;;11.71;100.00;101203.19;5075679;28;19924;-51
2021/12/06 03:16:18;;;;;;;;;;;;;;;11.71;100.00;101208.53;5074253;28;20296;-50
2021/12/06 03:18:45;;;;;;;;;;;;;;;11.73;100.00;101203.81;5074265;28;19920;-51
2021/12/06 03:21:10;;;;;;;;;;;;;;;11.75;100.00;101204.44;5058167;28;19924;-50
2021/12/06 03:23:36;;;;;;;;;;;;;;;11.60;100.00;101208.06;5075095;28;20373;-49
2021/12/06 03:26:02;;;;;;;;;;;;;;;11.68;100.00;101206.25;5057515;28;20025;-50
2021/12/06 03:28:28;;;;;;;;;;;;;;;11.73;100.00;101203.81;5074401;28;20031;-50
2021/12/06 03:30:53;;;;;;;;;;;;;;;11.75;100.00;101201.75;5057312;28;19921;-57
2021/12/06 03:33:19;;;;;;;;;;;;;;;11.75;100.00;101213.31;5073947;28;19931;-55
2021/12/06 03:35:45;;;;;;;;;;;;;;;11.74;100.00;101216.19;5074807;28;19924;-51
2021/12/06 03:38:10;;;;;;;;;;;;;;;11.65;100.00;101209.31;5074024;28;19925;-52
2021/12/06 03:40:36;;;;;;;;;;;;;;;11.71;100.00;101206.69;5074272;28;19920;-51
2021/12/06 03:43:02;;;;;;;;;;;;;;;11.71;100.00;101205.84;5073889;28;19924;-50
2021/12/06 03:45:29;;;;;;;;;;;;;;;11.62;100.00;101211.38;5074129;28;19916;-51
2021/12/06 03:47:55;;;;;;;;;;;;;;;11.68;100.00;101219.66;5075045;28;20288;-51
2021/12/06 03:50:21;;;;;;;;;;;;;;;11.73;100.00;101217.22;5073638;28;19917;-51
2021/12/06 03:52:48;;;;;;;;;;;;;;;11.74;100.00;101216.19;5074087;28;20308;-51
2021/12/06 03:55:14;;;;;;;;;;;;;;;11.61;100.00;101215.06;5074851;28;19913;-52
2021/12/06 03:57:41;;;;;;;;;;;;;;;11.62;100.00;101218.56;5073472;28;19925;-53
2021/12/06 04:00:10;;;;;;;;;;;;;;;11.66;100.00;101211.81;5074336;28;20067;-48
2021/12/06 04:02:39;;;;;;;;;;;;;;;11.61;100.00;101214.22;5075166;28;19924;-53
2021/12/06 04:05:06;;;;;;;;;;;;;;;11.62;100.00;101222.09;5074088;28;19924;-50
2021/12/06 04:07:31;;;;;;;;;;;;;;;11.62;100.00;101221.25;5073353;28;19923;-51
2021/12/06 04:09:57;;;;;;;;;;;;;;;11.57;100.00;101235.22;5057032;28;19925;-50
2021/12/06 04:12:22;;;;;;;;;;;;;;;11.71;100.00;101233.50;5073332;28;20380;-54
2021/12/06 04:14:48;;;;;;;;;;;;;;;11.84;100.00;101235.44;5073270;28;20350;-51
2021/12/06 04:17:13;;;;;;;;;;;;;;;11.80;100.00;101231.50;5074112;28;19924;-53
2021/12/06 04:19:41;;;;;;;;;;;;;;;11.93;100.00;101235.28;5073386;28;20311;-50
2021/12/06 04:22:06;;;;;;;;;;;;;;;11.87;100.00;101227.03;5073118;28;19921;-49
2021/12/06 04:24:33;;;;;;;;;;;;;;;11.82;100.00;101223.25;5073989;28;20023;-52
2021/12/06 04:27:02;;;;;;;;;;;;;;;11.76;100.00;101220.34;5073037;28;19931;-48
2021/12/06 04:29:28;;;;;;;;;;;;;;;11.75;100.00;101220.53;5073124;28;19931;-50
2021/12/06 04:31:55;;;;;;;;;;;;;;;11.72;100.00;101221.75;5056272;28;19920;-50
2021/12/06 04:34:23;;;;;;;;;;;;;;;11.78;100.00;101230.88;5072798;28;19992;-52
2021/12/06 04:36:48;;;;;;;;;;;;;;;11.72;100.00;101229.78;5072634;28;20375;-50
2021/12/06 04:39:17;;;;;;;;;;;;;;;11.75;100.00;101223.19;5055863;28;20110;-51
2021/12/06 04:41:43;;;;;;;;;;;;;;;11.76;100.00;101219.50;5072340;28;19924;-51
2021/12/06 04:44:10;;;;;;;;;;;;;;;11.70;100.00;101222.97;5072683;28;19928;-52
2021/12/06 04:46:37;;;;;;;;;;;;;;;11.69;100.00;101226.66;5073865;28;19924;-50
2021/12/06 04:49:03;;;;;;;;;;;;;;;11.73;100.00;101225.25;5073128;28;19924;-51
2021/12/06 04:51:29;;;;;;;;;;;;;;;11.75;100.00;101233.91;5072586;28;20394;-51
2021/12/06 04:53:54;;;;;;;;;;;;;;;11.73;100.00;101230.59;5073024;28;19921;-51
2021/12/06 04:56:27;;;;;;;;;;;;;;;11.75;100.00;101236.59;5072787;28;20372;-50
2021/12/06 04:59:05;;;;;;;;;;;;;;;11.80;100.00;101239.53;5073683;28;19953;-53
2021/12/06 05:01:33;;;;;;;;;;;;;;;11.66;100.00;101237.75;5072749;28;19973;-49
2021/12/06 05:04:00;;;;;;;;;;;;;;;11.66;100.00;101240.44;5073495;28;19967;-50
2021/12/06 05:06:27;;;;;;;;;;;;;;;11.60;100.00;101242.88;5073703;28;20015;-50
2021/12/06 05:08:56;;;;;;;;;;;;;;;11.58;100.00;101242.25;5072561;28;19917;-53
2021/12/06 05:11:23;;;;;;;;;;;;;;;11.47;100.00;101243.59;5056195;28;19968;-54
2021/12/06 05:13:52;;;;;;;;;;;;;;;11.35;100.00;101239.75;5072360;28;19920;-52
2021/12/06 05:16:18;;;;;;;;;;;;;;;11.39;100.00;101243.69;5075274;28;20019;-51
2021/12/06 05:18:44;;;;;;;;;;;;;;;11.30;100.00;101250.19;5076592;28;19963;-55
2021/12/06 05:21:09;;;;;;;;;;;;;;;11.12;100.00;101253.31;5077950;28;20321;-55
2021/12/06 05:23:35;;;;;;;;;;;;;;;11.11;100.00;101257.81;5078015;28;19924;-50
2021/12/06 05:26:01;;;;;;;;;;;;;;;11.11;100.00;101255.16;5076508;28;19917;-52
2021/12/06 05:28:27;;;;;;;;;;;;;;;11.08;100.00;101254.72;5076408;28;20383;-49
2021/12/06 05:30:56;;;;;;;;;;;;;;;11.03;100.00;101250.72;5076349;28;19972;-49
2021/12/06 05:33:29;;;;;;;;;;;;;;;11.01;100.00;101243.94;5075999;28;19921;-50
2021/12/06 05:35:56;;;;;;;;;;;;;;;10.99;100.00;101241.44;5077169;28;19920;-49
2021/12/06 05:38:21;;;;;;;;;;;;;;;10.90;100.00;101238.03;5075860;28;19920;-51
2021/12/06 05:40:47;;;;;;;;;;;;;;;10.76;100.00;101228.19;5077274;28;20019;-50
2021/12/06 05:43:13;;;;;;;;;;;;;;;10.82;100.00;101234.63;5078083;28;20341;-48
2021/12/06 05:45:38;;;;;;;;;;;;;;;10.91;100.00;101238.88;5076021;28;19928;-50
2021/12/06 05:48:04;;;;;;;;;;;;;;;11.10;100.00;101241.97;5077246;28;20439;-48
2021/12/06 05:50:30;;;;;;;;;;;;;;;11.11;100.00;101243.63;5077251;28;20338;-48
2021/12/06 05:52:56;;;;;;;;;;;;;;;11.08;100.00;101246.69;5076867;28;19924;-49
2021/12/06 05:55:23;;;;;;;;;;;;;;;11.08;100.00;101244.00;5077200;28;19921;-53
2021/12/06 05:57:48;;;;;;;;;;;;;;;11.10;100.00;101250.00;5077010;28;19921;-54
2021/12/06 06:00:15;;;;;;;;;;;;;;;11.15;100.00;101255.59;5076808;28;20012;-53
2021/12/06 06:02:41;;;;;;;;;;;;;;;11.28;100.00;101252.25;5077258;28;19920;-52
2021/12/06 06:05:06;;;;;;;;;;;;;;;11.28;100.00;101255.72;5077526;28;19974;-54
2021/12/06 06:07:32;;;;;;;;;;;;;;;11.33;100.00;101258.69;5076885;28;20264;-51
2021/12/06 06:09:57;;;;;;;;;;;;;;;11.29;100.00;101262.75;5076523;28;19935;-51
2021/12/06 06:12:23;;;;;;;;;;;;;;;11.35;100.00;101263.03;5076753;28;20347;-49
2021/12/06 06:14:48;;;;;;;;;;;;;;;11.33;100.00;101272.09;5075459;28;19936;-49
2021/12/06 06:17:15;;;;;;;;;;;;;;;11.33;100.00;101274.75;5076955;28;19920;-50
2021/12/06 06:19:44;;;;;;;;;;;;;;;11.23;100.00;101268.88;5075946;28;19920;-53
2021/12/06 06:22:09;;;;;;;;;;;;;;;11.28;100.00;101277.16;5075463;28;19921;-54
2021/12/06 06:24:35;;;;;;;;;;;;;;;11.27;100.00;101272.81;5076638;28;19920;-53
2021/12/06 06:27:00;;;;;;;;;;;;;;;11.27;100.00;101280.84;5076159;28;19923;-54
2021/12/06 06:29:26;;;;;;;;;;;;;;;11.35;100.00;101273.75;5076071;28;20387;-51
2021/12/06 06:31:52;;;;;;;;;;;;;;;11.28;100.00;101279.84;5075046;28;19982;-56
2021/12/06 06:34:17;;;;;;;;;;;;;;;11.21;100.00;101272.78;5076306;28;19920;-52
2021/12/06 06:36:43;;;;;;;;;;;;;;;10.82;100.00;101272.94;5076222;28;19921;-54
2021/12/06 06:39:09;;;;;;;;;;;;;;;10.85;100.00;101275.22;5058340;28;20376;-51
2021/12/06 06:41:35;;;;;;;;;;;;;;;11.09;100.00;101283.13;5076167;28;19920;-57
2021/12/06 06:44:01;;;;;;;;;;;;;;;10.67;100.00;101282.78;5075024;28;19994;-52
2021/12/06 06:46:27;;;;;;;;;;;;;;;10.96;100.00;101275.78;5074935;28;20276;-54
2021/12/06 06:48:53;;;;;;;;;;;;;;;10.99;100.00;101276.22;5058300;28;19928;-53
2021/12/06 06:51:19;;;;;;;;;;;;;;;10.82;100.00;101290.81;5075009;28;19935;-54
2021/12/06 06:53:44;;;;;;;;;;;;;;;10.58;100.00;101282.91;5074796;28;19916;-51
2021/12/06 06:56:09;;;;;;;;;;;;;;;10.68;100.00;101287.97;5058414;28;19924;-52
2021/12/06 06:58:35;;;;;;;;;;;;;;;10.63;100.00;101295.72;5075877;28;20427;-52
2021/12/06 07:01:00;;;;;;;;;;;;;;;10.94;100.00;101294.69;5074783;28;19967;-54
2021/12/06 07:03:31;;;;;;;;;;;;;;;10.73;100.00;101295.47;5075848;28;19946;-49
2021/12/06 07:05:57;;;;;;;;;;;;;;;10.54;100.00;101292.31;5075868;28;19920;-51
2021/12/06 07:08:22;;;;;;;;;;;;;;;10.39;100.00;101294.09;5075720;28;19932;-47
2021/12/06 07:10:50;;;;;;;;;;;;;;;10.80;100.00;101300.88;5075483;28;20300;-51
2021/12/06 07:13:16;;;;;;;;;;;;;;;10.42;100.00;101299.13;5075140;28;20007;-47
2021/12/06 07:15:41;;;;;;;;;;;;;;;10.85;100.00;101309.19;5074689;28;20027;-54
2021/12/06 07:18:07;;;;;;;;;;;;;;;10.93;100.00;101314.44;5074410;28;19960;-49
2021/12/06 07:20:33;;;;;;;;;;;;;;;11.04;100.00;101313.13;5075442;28;19920;-52
2021/12/06 07:22:59;;;;;;;;;;;;;;;10.67;100.00;101323.75;5075651;28;20031;-53
2021/12/06 07:25:24;;;;;;;;;;;;;;;10.93;100.00;101321.63;5074527;28;19916;-53
2021/12/06 07:27:50;;;;;;;;;;;;;;;11.13;100.00;101319.22;5074956;28;19928;-54
2021/12/06 07:30:16;;;;;;;;;;;;;;;11.13;100.00;101324.56;5075788;28;19924;-48
2021/12/06 07:32:42;;;;;;;;;;;;;;;11.16;100.00;101322.31;5075939;28;19928;-53
2021/12/06 07:35:08;;;;;;;;;;;;;;;11.22;100.00;101323.44;5073782;28;20326;-50
2021/12/06 07:37:33;;;;;;;;;;;;;;;11.02;100.00;101324.00;5074721;28;19928;-52
2021/12/06 07:39:59;;;;;;;;;;;;;;;11.03;100.00;101323.00;5074587;28;19927;-55
2021/12/06 07:42:24;;;;;;;;;;;;;;;10.88;100.00;101327.56;5075808;28;19978;-51
2021/12/06 07:44:50;;;;;;;;;;;;;;;10.92;100.00;101320.81;5074704;28;19924;-54
2021/12/06 07:47:16;;;;;;;;;;;;;;;11.13;100.00;101316.53;5074863;28;19921;-53
2021/12/06 07:49:45;;;;;;;;;;;;;;;10.93;100.00;101311.75;5073568;28;19998;-51
2021/12/06 07:52:11;;;;;;;;;;;;;;;10.95;100.00;101315.06;5074625;28;19916;-54
2021/12/06 07:54:37;;;;;;;;;;;;;;;10.38;100.00;101308.50;5074612;28;19928;-51
2021/12/06 07:57:02;;;;;;;;;;;;;;;10.47;100.00;101307.41;5073365;28;19925;-49
2021/12/06 07:59:28;;;;;;;;;;;;;;;10.05;100.00;101309.63;5074828;28;19977;-54
2021/12/06 08:01:53;;;;;;;;;;;;;;;10.06;100.00;101299.78;5057257;28;19920;-49
2021/12/06 08:04:19;;;;;;;;;;;;;;;10.09;100.00;101302.91;5075024;28;19924;-54
2021/12/06 08:06:45;;;;;;;;;;;;;;;9.90;100.00;101297.03;5074778;28;20336;-51
2021/12/06 08:09:11;;;;;;;;;;;;;;;9.89;100.00;101298.03;5074648;28;19966;-52
2021/12/06 08:11:36;;;;;;;;;;;;;;;9.43;100.00;101287.38;5073128;28;19924;-47
2021/12/06 08:14:02;;;;;;;;;;;;;;;9.13;100.00;101284.53;5073069;28;19928;-54
2021/12/06 08:16:29;;;;;;;;;;;;;;;9.59;100.00;101289.94;5074351;28;19928;-52
2021/12/06 08:18:55;;;;;;;;;;;;;;;9.86;100.00;101295.75;5073297;28;20025;-54
2021/12/06 08:21:21;;;;;;;;;;;;;;;9.78;100.00;101293.16;5072830;28;20411;-53
2021/12/06 08:23:49;;;;;;;;;;;;;;;9.03;100.00;101287.44;5072882;28;19970;-52
2021/12/06 08:26:15;;;;;;;;;;;;;;;9.02;100.00;101289.28;5073953;28;20279;-50
2021/12/06 08:28:41;;;;;;;;;;;;;;;8.81;100.00;101297.03;5073650;28;20376;-52
2021/12/06 08:31:07;;;;;;;;;;;;;;;9.25;100.00;101299.16;5073317;28;19973;-51
2021/12/06 08:33:33;;;;;;;;;;;;;;;8.75;100.00;101310.03;5074107;28;20311;-49
2021/12/06 08:35:59;;;;;;;;;;;;;;;8.62;100.00;101312.41;5073579;28;19929;-54
2021/12/06 08:38:26;;;;;;;;;;;;;;;8.72;100.00;101314.91;5072485;28;19920;-54
2021/12/06 08:40:52;;;;;;;;;;;;;;;8.71;100.00;101319.38;5074110;28;19944;-52
2021/12/06 08:43:19;;;;;;;;;;;;;;;9.22;100.00;101318.19;5074207;28;19932;-50
2021/12/06 08:45:53;;;;;;;;;;;;;;;8.85;100.00;101327.69;5073601;28;20395;-54
2021/12/06 08:48:19;;;;;;;;;;;;;;;8.66;100.00;101321.75;5072543;28;19928;-53
2021/12/06 08:50:45;;;;;;;;;;;;;;;8.58;100.00;101321.78;5071723;28;19966;-50
2021/12/06 08:53:10;;;;;;;;;;;;;;;8.98;100.00;101319.94;5073835;28;19920;-53
2021/12/06 08:55:35;;;;;;;;;;;;;;;8.61;100.00;101322.25;5073530;28;20445;-55
2021/12/06 08:58:01;;;;;;;;;;;;;;;8.83;100.00;101324.38;5073082;28;19970;-54
2021/12/06 09:00:28;;;;;;;;;;;;;;;8.95;100.00;101336.31;5073520;28;20277;-52
2021/12/06 09:02:54;;;;;;;;;;;;;;;9.04;100.00;101335.28;5073632;28;19917;-47
2021/12/06 09:05:20;;;;;;;;;;;;;;;9.42;100.00;101337.28;5073760;28;19927;-49
2021/12/06 09:07:45;;;;;;;;;;;;;;;9.41;100.00;101329.44;5072151;28;19924;-48
2021/12/06 09:10:12;;;;;;;;;;;;;;;9.05;100.00;101330.78;5073607;28;19920;-51
2021/12/06 09:12:38;;;;;;;;;;;;;;;8.93;100.00;101340.16;5073606;28;19920;-51
2021/12/06 09:15:06;;;;;;;;;;;;;;;9.11;100.00;101326.59;5073234;28;20002;-52
2021/12/06 09:17:32;;;;;;;;;;;;;;;8.92;100.00;101339.31;5074157;28;19920;-49
2021/12/06 09:19:57;;;;;;;;;;;;;;;9.55;100.00;101335.84;5074097;28;20053;-52
2021/12/06 09:22:22;;;;;;;;;;;;;;;9.23;100.00;101327.88;5072124;28;19964;-48
2021/12/06 09:24:49;;;;;;;;;;;;;;;9.19;100.00;101331.88;5073317;28;19928;-50
2021/12/06 09:27:15;;;;;;;;;;;;;;;9.54;100.00;101328.84;5074075;28;19920;-52
2021/12/06 09:29:41;;;;;;;;;;;;;;;9.51;100.00;101331.88;5072276;28;19947;-51
2021/12/06 09:32:08;;;;;;;;;;;;;;;9.17;100.00;101331.22;5073807;28;19928;-49
2021/12/06 09:34:34;;;;;;;;;;;;;;;8.91;100.00;101343.00;5073146;28;20315;-49
2021/12/06 09:36:59;;;;;;;;;;;;;;;9.12;100.00;101328.25;5073487;28;19920;-51
2021/12/06 09:39:25;;;;;;;;;;;;;;;9.62;100.00;101331.50;5072258;28;19920;-52
2021/12/06 09:41:51;;;;;;;;;;;;;;;9.49;100.00;101332.06;5073557;28;19920;-51
2021/12/06 09:44:16;;;;;;;;;;;;;;;9.00;100.00;101339.31;5071861;28;19920;-49
2021/12/06 09:46:42;;;;;;;;;;;;;;;8.94;100.00;101339.97;5071900;28;19966;-49
2021/12/06 09:49:09;;;;;;;;;;;;;;;8.84;100.00;101350.84;5071683;28;19928;-49
2021/12/06 09:51:36;;;;;;;;;;;;;;;8.99;100.00;101342.97;5072703;28;19928;-49
2021/12/06 09:54:02;;;;;;;;;;;;;;;8.82;100.00;101341.38;5071536;28;19920;-48
2021/12/06 09:56:31;;;;;;;;;;;;;;;8.86;100.00;101340.03;5072984;28;19924;-48
2021/12/06 09:58:57;;;;;;;;;;;;;;;9.06;100.00;101337.75;5073234;28;19921;-49
2021/12/06 10:01:25;;;;;;;;;;;;;;;9.19;100.00;101329.19;5072895;28;20015;-54
2021/12/06 10:03:53;;;;;;;;;;;;;;;9.59;100.00;101327.31;5077211;28;19920;-54
2021/12/06 10:06:20;;;;;;;;;;;;;;;9.52;100.00;101326.38;5076181;28;19963;-54
2021/12/06 10:08:47;;;;;;;;;;;;;;;9.48;100.00;101325.06;5077010;28;19920;-54
2021/12/06 10:11:14;;;;;;;;;;;;;;;9.57;100.00;101324.00;5075799;28;20023;-49
2021/12/06 10:13:40;;;;;;;;;;;;;;;9.40;100.00;101311.75;5075765;28;19928;-56
2021/12/06 10:16:06;;;;;;;;;;;;;;;9.47;100.00;101307.38;5075579;28;19920;-50
2021/12/06 10:18:32;;;;;;;;;;;;;;;9.58;100.00;101304.28;5076449;28;19928;-51
2021/12/06 10:20:58;;;;;;;;;;;;;;;9.75;100.00;101294.31;5077020;28;19920;-53
2021/12/06 10:23:24;;;;;;;;;;;;;;;9.97;100.00;101299.81;5075387;28;19924;-51
2021/12/06 10:25:50;;;;;;;;;;;;;;;9.90;100.00;101305.06;5076290;28;20425;-53
2021/12/06 10:28:17;;;;;;;;;;;;;;;9.65;100.00;101298.25;5058871;28;19921;-51
2021/12/06 10:30:45;;;;;;;;;;;;;;;9.76;100.00;101300.50;5075183;28;19920;-54
2021/12/06 10:33:15;;;;;;;;;;;;;;;9.21;100.00;101295.16;5074941;28;19917;-48
2021/12/06 10:35:42;;;;;;;;;;;;;;;9.46;100.00;101284.38;5075171;28;19920;-50
2021/12/06 10:38:08;;;;;;;;;;;;;;;9.47;100.00;101280.69;5076065;28;19943;-47
2021/12/06 10:40:36;;;;;;;;;;;;;;;8.98;100.00;101274.59;5075586;28;19932;-50
2021/12/06 10:43:03;;;;;;;;;;;;;;;9.21;100.00;101265.00;5076037;28;19921;-49
2021/12/06 10:45:31;;;;;;;;;;;;;;;9.15;100.00;101255.84;5074990;28;19931;-51
2021/12/06 10:48:08;;;;;;;;;;;;;;;9.40;100.00;101253.88;5076180;28;20034;-48
2021/12/06 10:50:35;;;;;;;;;;;;;;;8.73;100.00;101247.22;5076370;28;19920;-51
2021/12/06 10:53:03;;;;;;;;;;;;;;;9.40;100.00;101239.69;5075310;28;19923;-49
2021/12/06 10:55:30;;;;;;;;;;;;;;;9.36;100.00;101235.69;5075717;28;19966;-50
2021/12/06 10:57:58;;;;;;;;;;;;;;;9.06;100.00;101225.72;5075845;28;19920;-50
2021/12/06 11:00:36;;;;;;;;;;;;;;;8.81;100.00;101243.69;5075815;28;19939;-49
2021/12/06 11:03:02;;;;;;;;;;;;;;;8.95;100.00;101236.78;5074913;28;20376;-52
2021/12/06 11:05:28;;;;;;;;;;;;;;;8.75;100.00;101246.03;5075707;28;19924;-52
2021/12/06 11:08:17;;;;;;;;;;;;;;;8.90;100.00;101239.97;5073894;28;19972;-55
2021/12/06 11:10:47;;;;;;;;;;;;;;;8.93;100.00;101236.13;5073964;28;19966;-52
2021/12/06 11:13:23;;;;;;;;;;;;;;;8.64;100.00;101227.75;5074906;28;19921;-53
2021/12/06 11:16:07;;;;;;;;;;;;;;;8.58;100.00;101215.13;5075385;28;19931;-50
2021/12/06 11:18:35;;;;;;;;;;;;;;;8.81;100.00;101211.69;5074101;28;19967;-49
2021/12/06 11:21:01;;;;;;;;;;;;;;;9.12;100.00;101203.69;5076073;28;19916;-50
2021/12/06 11:23:27;;;;;;;;;;;;;;;8.55;100.00;101204.81;5075891;28;20380;-49
2021/12/06 11:26:02;;;;;;;;;;;;;;;9.14;100.00;101188.31;5075220;28;19921;-51
2021/12/06 11:28:29;;;;;;;;;;;;;;;9.38;100.00;101186.47;5075579;28;19920;-49
2021/12/06 11:30:59;;;;;;;;;;;;;;;8.71;100.00;101178.06;5074179;28;19920;-54
2021/12/06 11:33:26;;;;;;;;;;;;;;;8.80;100.00;101183.38;5075468;28;20423;-54
2021/12/06 11:35:51;;;;;;;;;;;;;;;8.84;100.00;101185.47;5074690;28;19965;-53
2021/12/06 11:38:18;;;;;;;;;;;;;;;9.11;100.00;101195.84;5074698;28;19925;-56
2021/12/06 11:40:43;;;;;;;;;;;;;;;8.94;100.00;101185.25;5074606;28;19920;-52
2021/12/06 11:43:13;;;;;;;;;;;;;;;9.02;100.00;101184.38;5075425;28;19935;-51
2021/12/06 11:45:39;;;;;;;;;;;;;;;8.81;100.00;101179.69;5073278;28;20430;-54
2021/12/06 11:48:06;;;;;;;;;;;;;;;9.09;100.00;101172.00;5075072;28;19916;-54
2021/12/06 11:50:32;;;;;;;;;;;;;;;9.30;100.00;101166.00;5074892;28;19968;-49
2021/12/06 11:53:02;;;;;;;;;;;;;;;9.91;100.00;101166.97;5074519;28;19952;-53
2021/12/06 11:55:29;;;;;;;;;;;;;;;9.12;100.00;101161.00;5074614;28;20394;-49
2021/12/06 11:57:54;;;;;;;;;;;;;;;8.79;100.00;101160.38;5073376;28;20372;-52
2021/12/06 12:00:21;;;;;;;;;;;;;;;8.92;100.00;101168.59;5074021;28;20015;-55
2021/12/06 12:02:48;;;;;;;;;;;;;;;9.40;100.00;101156.91;5075238;28;19921;-54
2021/12/06 12:05:14;;;;;;;;;;;;;;;9.18;100.00;101167.44;5075168;28;19921;-52
2021/12/06 12:07:54;;;;;;;;;;;;;;;8.85;100.00;101144.47;5074806;28;19916;-54
2021/12/06 12:10:27;;;;;;;;;;;;;;;9.37;100.00;101149.28;5074818;28;19955;-54
2021/12/06 12:12:53;;;;;;;;;;;;;;;9.45;100.00;101133.19;5074273;28;19964;-52
2021/12/06 12:15:19;;;;;;;;;;;;;;;9.60;100.00;101133.22;5074555;28;19965;-53
2021/12/06 12:17:46;;;;;;;;;;;;;;;9.59;100.00;101131.56;5074073;28;20023;-49
2021/12/06 12:20:11;;;;;;;;;;;;;;;9.33;100.00;101128.28;5040271;28;19925;-52
2021/12/06 12:22:39;;;;;;;;;;;;;;;9.45;100.00;101117.16;5073727;28;19961;-51
2021/12/06 12:25:09;;;;;;;;;;;;;;;9.35;100.00;101111.25;5073975;28;20029;-53
2021/12/06 12:30:19;;;;;;;;;;;;;;;9.12;100.00;101112.13;5074781;28;19951;-51
2021/12/06 12:32:44;;;;;;;;;;;;;;;9.36;100.00;101104.91;5073921;28;19920;-51
2021/12/06 12:35:11;;;;;;;;;;;;;;;8.66;100.00;101111.09;5072576;28;19970;-52
2021/12/06 12:37:38;;;;;;;;;;;;;;;9.24;100.00;101100.03;5073027;28;20012;-48
2021/12/06 12:40:04;;;;;;;;;;;;;;;9.12;100.00;101120.13;5073274;28;19916;-51
2021/12/06 12:42:29;;;;;;;;;;;;;;;9.31;100.00;101111.63;5074479;28;20245;-52
2021/12/06 12:44:56;;;;;;;;;;;;;;;9.53;100.00;101090.41;5056826;28;19931;-52
2021/12/06 12:47:26;;;;;;;;;;;;;;;9.53;100.00;101092.22;5074402;28;19927;-47